Terminal Aerodrome Forecast
Issued by NWS

Current Version | Previous Version | Text Only | Print | Product List | Glossary Off
Versions: 1 2 3 4 5 6 7 8 9 10 11 12 13 14 15 16 17 18 19 20 21 22 23 24 25 26 27 28 29

000
FTUS41 KILN 162100 AAA
TAFLUK
TAF AMD
KLUK 162116Z 1621/1718 01004KT P6SM OVC028
     FM170100 00000KT P6SM BKN028
     FM170800 00000KT 4SM BR SCT035
     FM171000 00000KT 1/4SM FG VV001
     FM171300 00000KT 1SM BR SCT001
     FM171400 VRB03KT P6SM SCT015
     FM171500 VRB03KT P6SM BKN040=

USA.gov is the U.S. government's official web portal to all federal, state and local government web resources and services.